Dumas, TX

11:14 AM CDT on July 27, 2017 (GMT -0500)
Moore County

Weather History for KDUX - May, 2013

Change the Weather History Date:

Saturday, May 18, 2013

  Actual Average (KDHT) Record (KDHT)
Temperature  
Mean Temperature 81 °F -  
Max Temperature 94 °F 79 °F 99 °F (1996)
Min Temperature 65 °F 48 °F 34 °F (1986)
Cooling Degree Days 16    
Growing Degree Days 31 (Base 50)    
Moisture  
Dew Point 36 °F    
Average Humidity 29    
Maximum Humidity 87    
Minimum Humidity 7    
Precipitation  
Precipitation 0.00 in - - ()
Sea Level Pressure  
Sea Level Pressure 29.78 in    
Wind  
Wind Speed 16 mph (SSW)    
Max Wind Speed 28 mph    
Max Gust Speed 34 mph    
Visibility 10 miles    
Events      
Averages and records for this station are not official NWS values.
T = Trace of Precipitation, MM = Missing Value Source: NWS Daily Summary

Daily Weather History Graph

Daily Weather History Graph

Search for Another Location

Airport or City:

Trip Planner

Search our weather history database for the weather conditions in past years. The results will help you decide how hot, cold, wet, or windy it might be!

Date:

Astronomy

May. 18, 2013 Rise Set
Actual Time 6:40 AM CDT 8:49 PM CDT
Civil Twilight 6:11 AM CDT 9:18 PM CDT
Nautical Twilight 5:36 AM CDT 9:53 PM CDT
Astronomical Twilight 4:58 AM CDT 10:31 PM CDT
Moon 2:07 PM CDT (5/18) 2:19 AM CDT (5/18)
Length of Visible Light 15h 06m
Length of Day
14h 09m
First Quarter, 55% of the Moon is Illuminated
May 18
First Quarter
May 24
Full
May 31
Last Quarter
Jun 8
New
Jun 16
First Quarter

Hourly Weather History & Observations

Time (CDT) Temp. Dew Point Humidity Pressure Visibility Wind Dir Wind Speed Gust Speed Precip Events Conditions
12:15 AM 72.9 °F 62.8 °F 71% 29.87 in 10.0 mi SE 16.1 mph 19.6 mph N/A   Clear
12:35 AM 72.7 °F 64.6 °F 76% 29.88 in 10.0 mi SE 19.6 mph 24.2 mph N/A   Clear
12:55 AM 72.9 °F 65.7 °F 78% 29.87 in 10.0 mi SSE 16.1 mph 23.0 mph N/A   Clear
1:15 AM 71.8 °F 65.3 °F 80% 29.86 in 10.0 mi SSE 12.7 mph 18.4 mph N/A   Clear
1:35 AM 71.8 °F 65.3 °F 80% 29.86 in 10.0 mi SSE 13.8 mph - N/A   Clear
1:55 AM 70.3 °F 65.7 °F 85% 29.86 in 7.0 mi SSE 11.5 mph - N/A   Clear
2:15 AM 70.0 °F 65.3 °F 85% 29.85 in 7.0 mi SE 11.5 mph - N/A   Clear
2:35 AM 69.3 °F 65.1 °F 87% 29.84 in 7.0 mi SSE 10.4 mph - N/A   Clear
2:55 AM 68.9 °F 64.6 °F 86% 29.84 in 7.0 mi South 11.5 mph - N/A   Clear
3:15 AM 69.4 °F 64.6 °F 84% 29.84 in 7.0 mi SSE 12.7 mph 17.3 mph N/A   Clear
3:35 AM 69.8 °F 64.8 °F 84% 29.83 in 7.0 mi SSE 12.7 mph - N/A   Clear
3:55 AM 70.0 °F 63.9 °F 81% 29.82 in 7.0 mi South 16.1 mph 20.7 mph N/A   Clear
4:15 AM 71.8 °F 58.5 °F 63% 29.82 in 10.0 mi South 19.6 mph 23.0 mph N/A   Scattered Clouds
4:35 AM 72.9 °F 54.1 °F 52% 29.82 in 10.0 mi SSW 15.0 mph - N/A   Scattered Clouds
4:55 AM 74.1 °F 50.9 °F 44% 29.82 in 10.0 mi South 15.0 mph 25.3 mph N/A   Mostly Cloudy
5:15 AM 73.9 °F 45.5 °F 36% 29.82 in 10.0 mi South 16.1 mph - N/A   Overcast
5:35 AM 75.2 °F 39.2 °F 27% 29.82 in 10.0 mi South 15.0 mph 21.9 mph N/A   Scattered Clouds
5:55 AM 74.5 °F 38.8 °F 28% 29.82 in 10.0 mi South 11.5 mph - N/A   Clear
6:15 AM 74.3 °F 38.3 °F 27% 29.82 in 10.0 mi SSE 11.5 mph - N/A   Clear
6:35 AM 72.9 °F 38.8 °F 29% 29.82 in 10.0 mi SSE 13.8 mph - N/A   Clear
6:55 AM 72.3 °F 38.5 °F 29% 29.83 in 10.0 mi South 11.5 mph - N/A   Clear
7:15 AM 68.9 °F 40.1 °F 35% 29.84 in 10.0 mi South 10.4 mph - N/A   Clear
7:35 AM 70.3 °F 41.9 °F 36% 29.83 in 10.0 mi SSE 10.4 mph - N/A   Clear
7:55 AM 72.9 °F 43.5 °F 35% 29.83 in 10.0 mi SSE 10.4 mph - N/A   Clear
8:15 AM 74.8 °F 44.2 °F 33% 29.83 in 10.0 mi SSE 10.4 mph - N/A   Clear
8:35 AM 76.1 °F 44.4 °F 32% 29.83 in 10.0 mi South 11.5 mph - N/A   Clear
8:55 AM 77.7 °F 43.9 °F 30% 29.82 in 10.0 mi South 12.7 mph - N/A   Clear
9:15 AM 79.7 °F 42.8 °F 27% 29.83 in 10.0 mi SSW 17.3 mph - N/A   Clear
9:35 AM 82.2 °F 41.5 °F 24% 29.82 in 10.0 mi SW 18.4 mph 25.3 mph N/A   Clear
9:55 AM 84.4 °F 39.0 °F 20% 29.83 in 10.0 mi SW 20.7 mph 25.3 mph N/A   Clear
10:15 AM 86.5 °F 34.7 °F 16% 29.83 in 10.0 mi SW 19.6 mph - N/A   Clear
10:35 AM 87.1 °F 33.4 °F 15% 29.83 in 10.0 mi SW 19.6 mph - N/A   Clear
10:55 AM 88.0 °F 33.8 °F 15% 29.83 in 10.0 mi SW 20.7 mph 24.2 mph N/A   Clear
11:15 AM 90.0 °F 30.7 °F 12% 29.83 in 10.0 mi WSW 23.0 mph 28.8 mph N/A   Clear
11:35 AM 91.2 °F 28.6 °F 11% 29.82 in 10.0 mi SW 24.2 mph 27.6 mph N/A   Clear
11:55 AM 91.6 °F 27.1 °F 10% 29.82 in 10.0 mi WSW 19.6 mph 27.6 mph N/A   Clear
12:15 PM 91.9 °F 28.8 °F 10% 29.82 in 10.0 mi WSW 20.7 mph 29.9 mph N/A   Clear
12:35 PM 92.5 °F 21.9 °F 8% 29.81 in 10.0 mi WSW 18.4 mph 32.2 mph N/A   Clear
12:55 PM 94.1 °F 27.3 °F 9% 29.81 in 10.0 mi WSW 23.0 mph 31.1 mph N/A   Clear
1:15 PM 93.2 °F 27.3 °F 9% 29.80 in 10.0 mi SW 25.3 mph 34.5 mph N/A   Clear
1:35 PM 92.8 °F 27.0 °F 9% 29.79 in 10.0 mi WSW 21.9 mph 28.8 mph N/A   Clear
2:15 PM 94.5 °F 26.6 °F 9% 29.78 in 10.0 mi SW 21.9 mph 29.9 mph N/A   Clear
2:35 PM 92.1 °F 25.5 °F 9% 29.77 in 10.0 mi SW 18.4 mph 27.6 mph N/A   Clear
2:55 PM 94.3 °F 25.5 °F 9% 29.77 in 10.0 mi SW 19.6 mph 32.2 mph N/A   Clear
3:15 PM 93.4 °F 25.7 °F 9% 29.76 in 10.0 mi SW 16.1 mph 23.0 mph N/A   Clear
3:35 PM 93.0 °F 24.8 °F 9% 29.76 in 10.0 mi WSW 23.0 mph 31.1 mph N/A   Clear
3:55 PM 91.6 °F 24.1 °F 9% 29.75 in 10.0 mi WSW 23.0 mph 29.9 mph N/A   Clear
4:15 PM 91.6 °F 23.2 °F 8% 29.75 in 10.0 mi SW 20.7 mph 28.8 mph N/A   Clear
4:35 PM 91.9 °F 23.5 °F 8% 29.74 in 10.0 mi SW 24.2 mph 33.4 mph N/A   Clear
4:55 PM 92.8 °F 23.0 °F 8% 29.73 in 10.0 mi SSW 15.0 mph 26.5 mph N/A   Clear
5:15 PM 93.9 °F 23.2 °F 8% 29.72 in 10.0 mi SW 27.6 mph 34.5 mph N/A   Clear
5:35 PM 93.4 °F 22.3 °F 8% 29.71 in 10.0 mi SW 25.3 mph 34.5 mph N/A   Clear
5:55 PM 93.2 °F 21.7 °F 8% 29.71 in 10.0 mi WSW 20.7 mph 32.2 mph N/A   Clear
6:15 PM 92.7 °F 20.1 °F 7% 29.70 in 10.0 mi WSW 25.3 mph 32.2 mph N/A   Clear
6:35 PM 91.6 °F 19.8 °F 7% 29.69 in 10.0 mi WSW 21.9 mph - N/A   Scattered Clouds
6:55 PM 90.7 °F 18.9 °F 7% 29.69 in 10.0 mi WSW 27.6 mph - N/A   Clear
7:15 PM 89.6 °F 19.2 °F 8% 29.69 in 10.0 mi WSW 23.0 mph 29.9 mph N/A   Clear
7:35 PM 86.9 °F 19.6 °F 8% 29.69 in 10.0 mi SW 21.9 mph 25.3 mph N/A   Clear
7:55 PM 87.1 °F 19.4 °F 8% 29.69 in 10.0 mi WSW 23.0 mph 27.6 mph N/A   Clear
8:15 PM 85.8 °F 20.1 °F 9% 29.69 in 10.0 mi WSW 18.4 mph 24.2 mph N/A   Clear
8:35 PM 82.4 °F 18.9 °F 9% 29.68 in 10.0 mi WSW 16.1 mph - N/A   Clear
8:55 PM 79.2 °F 19.4 °F 11% 29.68 in 10.0 mi WSW 11.5 mph - N/A   Clear
9:15 PM 75.9 °F 19.4 °F 12% 29.69 in 10.0 mi WSW 13.8 mph - N/A   Clear
9:35 PM 73.4 °F 21.6 °F 14% 29.69 in 10.0 mi West 10.4 mph - N/A   Clear
9:55 PM 73.4 °F 23.2 °F 15% 29.69 in 10.0 mi West 15.0 mph - N/A   Clear
10:15 PM 72.7 °F 23.5 °F 16% 29.71 in 10.0 mi West 12.7 mph - N/A   Clear
10:35 PM 70.7 °F 23.5 °F 17% 29.71 in 10.0 mi West 9.2 mph - N/A   Clear
10:55 PM 70.5 °F 23.2 °F 17% 29.72 in 10.0 mi West 12.7 mph - N/A   Clear
11:15 PM 68.4 °F 26.2 °F 21% 29.72 in 10.0 mi West 6.9 mph - N/A   Clear
11:35 PM 65.7 °F 27.3 °F 24% 29.72 in 10.0 mi WNW 9.2 mph - N/A   Clear